Time;durP1;ratioP1;P1;durP2;ratioP2;P2;SDS_P1;SDS_P2;PMS_P1;PMS_P2;Temp;Humidity;BMP_temperature;BMP_pressure;BME280_temperature;BME280_humidity;BME280_pressure;Samples;Min_cycle;Max_cycle;Signal;HPM_P1;HPM_P2
2021/03/31 00:02:10;;;;;;;5.07;1.90;;;6.90;99.90;;;;;;5011328;28;20131;-77
2021/03/31 00:04:35;;;;;;;6.57;2.03;;;6.70;99.90;;;;;;5011988;28;20125;-76
2021/03/31 00:07:04;;;;;;;7.97;3.00;;;6.70;99.90;;;;;;5027773;28;20552;-77
2021/03/31 00:09:30;;;;;;;7.80;1.83;;;7.10;99.90;;;;;;5028862;28;20094;-76
2021/03/31 00:11:56;;;;;;;2.90;1.77;;;7.10;99.90;;;;;;5034784;28;20536;-76
2021/03/31 00:14:21;;;;;;;3.47;1.90;;;7.20;99.90;;;;;;5028421;28;20096;-77
2021/03/31 00:16:47;;;;;;;7.88;2.55;;;7.00;99.90;;;;;;5029058;28;20814;-78
2021/03/31 00:19:12;;;;;;;4.60;1.58;;;6.60;99.90;;;;;;5028268;28;21508;-78
2021/03/31 00:21:38;;;;;;;3.50;1.35;;;6.20;99.90;;;;;;5011385;28;20074;-77
2021/03/31 00:24:04;;;;;;;5.32;1.80;;;6.20;99.90;;;;;;5017637;28;20098;-77
2021/03/31 00:26:29;;;;;;;2.40;1.60;;;6.20;99.90;;;;;;5025704;28;20529;-78
2021/03/31 00:28:55;;;;;;;3.08;1.83;;;6.40;99.90;;;;;;5027157;28;20580;-77
2021/03/31 00:31:20;;;;;;;4.18;1.75;;;6.50;99.90;;;;;;5022060;28;20159;-77
2021/03/31 00:33:46;;;;;;;3.30;1.90;;;6.40;99.90;;;;;;5026171;28;20459;-78
2021/03/31 00:36:11;;;;;;;3.92;2.00;;;6.40;99.90;;;;;;5015061;28;20085;-77
2021/03/31 00:38:37;;;;;;;5.45;2.20;;;6.50;99.90;;;;;;5010931;28;20111;-77
2021/03/31 00:41:04;;;;;;;5.65;1.70;;;6.70;99.90;;;;;;5024706;28;20429;-77
2021/03/31 00:43:30;;;;;;;3.58;1.92;;;6.60;99.90;;;;;;5019082;28;20105;-77
2021/03/31 00:45:56;;;;;;;4.20;2.25;;;6.40;99.90;;;;;;5018746;28;20169;-78
2021/03/31 00:48:22;;;;;;;5.88;1.65;;;6.30;99.90;;;;;;5024056;28;20168;-77
2021/03/31 00:50:59;;;;;;;3.67;1.80;;;6.20;99.90;;;;;;5028792;28;20088;-77
2021/03/31 00:53:38;;;;;;;2.50;1.75;;;6.10;99.90;;;;;;5029126;28;20069;-77
2021/03/31 00:56:05;;;;;;;4.50;2.25;;;5.90;99.90;;;;;;5027414;28;20090;-77
2021/03/31 00:58:31;;;;;;;3.58;1.73;;;5.80;99.90;;;;;;5012888;28;20181;-77
2021/03/31 01:00:57;;;;;;;5.25;1.90;;;5.90;99.90;;;;;;5016569;28;20070;-77
2021/03/31 01:03:23;;;;;;;3.65;1.60;;;5.90;99.90;;;;;;5011265;28;20094;-77
2021/03/31 01:05:48;;;;;;;4.70;2.10;;;5.90;99.90;;;;;;5006493;28;20503;-77
2021/03/31 01:08:14;;;;;;;4.53;1.90;;;6.10;99.90;;;;;;5029141;28;20572;-77
2021/03/31 01:10:48;;;;;;;3.22;1.65;;;6.00;99.90;;;;;;5019090;28;20066;-77
2021/03/31 01:13:52;;;;;;;2.58;1.70;;;6.00;99.90;;;;;;5011498;28;20751;-77
2021/03/31 01:16:21;;;;;;;2.65;1.77;;;6.00;99.90;;;;;;5014211;28;20180;-77
2021/03/31 01:19:14;;;;;;;4.35;2.50;;;6.00;99.90;;;;;;5020738;28;20100;-77
2021/03/31 01:22:17;;;;;;;2.70;1.65;;;6.20;99.90;;;;;;5016160;28;20097;-77
2021/03/31 01:25:17;;;;;;;2.80;1.58;;;6.40;99.90;;;;;;4996389;28;20582;-77
2021/03/31 01:28:14;;;;;;;3.47;1.83;;;6.00;99.90;;;;;;5008410;28;20090;-77
2021/03/31 01:31:01;;;;;;;4.75;1.73;;;5.90;99.90;;;;;;5011448;28;20109;-77
2021/03/31 01:34:07;;;;;;;3.72;2.30;;;5.90;99.90;;;;;;5022553;28;20074;-77
2021/03/31 01:36:34;;;;;;;3.88;2.22;;;5.80;99.90;;;;;;5024800;28;20085;-77
2021/03/31 01:39:03;;;;;;;4.57;1.85;;;6.00;99.90;;;;;;5022993;28;20552;-77
2021/03/31 01:41:31;;;;;;;3.28;1.85;;;6.10;99.90;;;;;;5012770;28;20888;-77
2021/03/31 01:44:00;;;;;;;5.45;2.20;;;6.20;99.90;;;;;;5013436;28;20167;-77
2021/03/31 01:46:29;;;;;;;3.83;1.77;;;6.40;99.90;;;;;;5020924;28;20124;-79
2021/03/31 01:48:57;;;;;;;3.28;1.52;;;6.50;99.90;;;;;;5015106;28;20603;-79
2021/03/31 01:51:24;;;;;;;3.83;1.95;;;6.40;99.90;;;;;;5015788;28;20507;-78
2021/03/31 01:53:50;;;;;;;7.57;2.17;;;6.10;99.90;;;;;;5021846;28;20098;-77
2021/03/31 01:56:17;;;;;;;3.15;1.80;;;5.90;99.90;;;;;;5015976;28;20075;-77
2021/03/31 01:58:44;;;;;;;4.68;2.17;;;5.80;99.90;;;;;;5024307;28;20102;-77
2021/03/31 02:01:14;;;;;;;5.60;2.10;;;6.20;99.90;;;;;;5033489;28;20070;-77
2021/03/31 02:03:40;;;;;;;4.38;2.00;;;6.10;99.90;;;;;;5033224;28;20097;-74
2021/03/31 02:06:06;;;;;;;3.45;2.03;;;6.10;99.90;;;;;;5032666;28;20101;-77
2021/03/31 02:08:32;;;;;;;4.15;2.53;;;6.30;99.90;;;;;;5025734;28;20114;-77
2021/03/31 02:10:58;;;;;;;2.92;1.55;;;6.00;99.90;;;;;;5020561;28;20074;-77
2021/03/31 02:13:24;;;;;;;4.20;2.15;;;5.60;99.90;;;;;;5032954;28;20085;-77
2021/03/31 02:15:55;;;;;;;4.32;2.50;;;5.40;99.90;;;;;;5030973;28;20135;-77
2021/03/31 02:18:21;;;;;;;3.45;1.80;;;5.50;99.90;;;;;;5026369;28;20086;-79
2021/03/31 02:20:51;;;;;;;4.90;2.10;;;5.50;99.90;;;;;;5028286;28;20623;-77
2021/03/31 02:23:18;;;;;;;4.20;2.22;;;5.30;99.90;;;;;;5031817;28;20086;-77
2021/03/31 02:25:47;;;;;;;3.83;2.40;;;5.20;99.90;;;;;;5031245;28;20119;-77
2021/03/31 02:28:13;;;;;;;4.13;2.50;;;5.40;99.90;;;;;;5030609;28;20094;-77
2021/03/31 02:30:39;;;;;;;4.45;2.85;;;5.60;99.90;;;;;;5032662;28;20077;-77
2021/03/31 02:33:07;;;;;;;5.43;2.80;;;5.40;99.90;;;;;;5026035;28;20088;-78
2021/03/31 02:35:35;;;;;;;8.80;3.03;;;5.20;99.90;;;;;;5024926;28;20437;-78
2021/03/31 02:38:05;;;;;;;4.40;2.60;;;5.10;99.90;;;;;;5012333;28;20102;-77
2021/03/31 02:40:31;;;;;;;5.93;2.50;;;5.00;99.90;;;;;;5014473;28;20603;-77
2021/03/31 02:42:59;;;;;;;5.05;2.90;;;5.00;99.90;;;;;;5012720;28;20132;-77
2021/03/31 02:45:26;;;;;;;3.58;2.28;;;5.00;99.90;;;;;;5014987;28;20121;-77
2021/03/31 02:47:54;;;;;;;5.38;2.60;;;5.30;99.90;;;;;;5014668;28;20098;-79
2021/03/31 02:50:23;;;;;;;3.78;2.17;;;5.20;99.90;;;;;;5012438;28;20074;-77
2021/03/31 02:52:50;;;;;;;4.53;2.67;;;5.00;99.90;;;;;;5022452;28;20070;-77
2021/03/31 02:55:17;;;;;;;4.57;2.70;;;4.80;99.90;;;;;;5014385;28;20070;-77
2021/03/31 02:57:44;;;;;;;6.53;2.60;;;4.80;99.90;;;;;;5013135;28;20463;-77
2021/03/31 03:00:11;;;;;;;6.75;2.50;;;5.20;99.90;;;;;;5024598;28;20075;-77
2021/03/31 03:02:43;;;;;;;4.90;3.40;;;5.20;99.90;;;;;;5013411;28;20070;-77
2021/03/31 03:05:11;;;;;;;3.70;2.70;;;5.10;99.90;;;;;;5018262;28;20073;-77
2021/03/31 03:07:37;;;;;;;4.95;2.85;;;5.10;99.90;;;;;;5016618;28;20160;-78
2021/03/31 03:10:05;;;;;;;4.07;2.33;;;4.90;99.90;;;;;;5030351;28;20082;-77
2021/03/31 03:12:32;;;;;;;4.93;3.15;;;5.00;99.90;;;;;;5026139;28;20109;-77
2021/03/31 03:14:58;;;;;;;9.68;3.35;;;5.10;99.90;;;;;;5014780;28;20071;-80
2021/03/31 03:17:24;;;;;;;5.30;3.50;;;4.90;99.90;;;;;;5011334;28;20071;-76
2021/03/31 03:19:50;;;;;;;4.35;2.80;;;4.90;99.90;;;;;;5013657;28;20441;-77
2021/03/31 03:22:18;;;;;;;5.30;3.00;;;5.20;99.90;;;;;;5025383;28;20157;-77
2021/03/31 03:24:46;;;;;;;5.47;3.15;;;4.90;99.90;;;;;;5028850;28;20097;-79
2021/03/31 03:27:14;;;;;;;5.25;3.20;;;4.70;99.90;;;;;;5026265;28;20078;-77
2021/03/31 03:29:45;;;;;;;4.22;2.70;;;4.70;99.90;;;;;;5012335;28;20093;-77
2021/03/31 03:32:10;;;;;;;4.93;3.45;;;4.70;99.90;;;;;;5027645;28;20062;-77
2021/03/31 03:34:37;;;;;;;7.80;3.65;;;4.80;99.90;;;;;;5026930;28;20094;-77
2021/03/31 03:37:03;;;;;;;5.25;2.58;;;4.90;99.90;;;;;;5025743;28;20136;-77
2021/03/31 03:39:29;;;;;;;5.50;3.10;;;5.10;99.90;;;;;;5022860;28;20101;-77
2021/03/31 03:41:55;;;;;;;5.25;2.45;;;5.30;99.90;;;;;;5018758;28;20086;-78
2021/03/31 03:44:22;;;;;;;4.95;2.22;;;5.50;99.90;;;;;;5030284;28;20094;-78
2021/03/31 03:46:48;;;;;;;6.75;2.90;;;5.40;99.90;;;;;;5030995;28;20074;-77
2021/03/31 03:49:14;;;;;;;5.15;2.97;;;5.10;99.90;;;;;;5020258;28;20086;-77
2021/03/31 03:51:40;;;;;;;5.85;3.33;;;4.90;99.90;;;;;;5020899;28;20078;-76
2021/03/31 03:54:10;;;;;;;5.50;2.90;;;4.70;99.90;;;;;;5026002;28;20074;-78
2021/03/31 03:56:37;;;;;;;8.40;4.13;;;4.60;99.90;;;;;;5034952;28;20097;-79
2021/03/31 03:59:21;;;;;;;7.45;3.17;;;4.80;99.90;;;;;;5028341;28;20444;-77
2021/03/31 04:01:48;;;;;;;4.65;3.58;;;5.00;99.90;;;;;;5010927;28;20086;-77
2021/03/31 04:04:14;;;;;;;5.88;3.20;;;4.90;99.90;;;;;;5020703;28;20089;-77
2021/03/31 04:06:40;;;;;;;5.40;2.60;;;5.10;99.90;;;;;;5028269;28;20562;-79
2021/03/31 04:09:06;;;;;;;6.00;2.92;;;5.00;99.90;;;;;;5031185;28;20455;-78
2021/03/31 04:11:34;;;;;;;5.50;3.00;;;4.90;99.90;;;;;;5030622;28;20070;-77
2021/03/31 04:14:02;;;;;;;7.15;3.03;;;5.00;99.90;;;;;;5027019;28;20159;-77
2021/03/31 04:16:32;;;;;;;4.03;2.90;;;5.20;99.90;;;;;;5028413;28;20097;-78
2021/03/31 04:19:04;;;;;;;5.43;2.65;;;5.10;99.90;;;;;;5015997;28;20090;-78
2021/03/31 04:21:32;;;;;;;4.75;2.78;;;4.90;99.90;;;;;;5012407;28;20070;-78
2021/03/31 04:23:58;;;;;;;3.88;2.55;;;5.10;99.90;;;;;;5010624;28;20161;-78
2021/03/31 04:26:26;;;;;;;5.72;3.55;;;5.00;99.90;;;;;;5013493;28;20066;-78
2021/03/31 04:28:53;;;;;;;5.47;2.45;;;5.10;99.90;;;;;;5019228;28;20171;-76
2021/03/31 04:31:22;;;;;;;4.38;3.28;;;5.40;99.90;;;;;;5011484;28;20077;-78
2021/03/31 04:33:50;;;;;;;4.30;3.10;;;5.30;99.90;;;;;;5011101;28;20085;-78
2021/03/31 04:36:16;;;;;;;6.03;3.22;;;5.30;99.90;;;;;;5013410;28;20152;-77
2021/03/31 04:38:50;;;;;;;5.78;3.15;;;5.40;99.90;;;;;;5018041;28;20556;-77
2021/03/31 04:41:17;;;;;;;5.50;3.35;;;5.00;99.90;;;;;;5010670;28;20074;-79
2021/03/31 04:43:43;;;;;;;7.38;3.25;;;4.70;99.90;;;;;;5018341;28;20085;-77
2021/03/31 04:46:09;;;;;;;7.68;3.50;;;4.80;99.90;;;;;;5028387;28;20212;-77
2021/03/31 04:48:36;;;;;;;4.80;3.15;;;4.60;99.90;;;;;;5027942;28;20603;-77
2021/03/31 04:51:03;;;;;;;5.45;2.63;;;4.60;99.90;;;;;;5025069;28;20157;-77
2021/03/31 04:53:29;;;;;;;4.90;2.13;;;4.80;99.90;;;;;;5025319;28;20124;-77
2021/03/31 04:55:55;;;;;;;8.35;3.13;;;4.90;99.90;;;;;;5014275;28;20070;-79
2021/03/31 04:58:20;;;;;;;4.90;2.63;;;5.00;99.90;;;;;;5026685;28;20129;-77
2021/03/31 05:00:46;;;;;;;5.80;3.20;;;5.10;99.90;;;;;;5023538;28;20739;-77
2021/03/31 05:03:12;;;;;;;8.00;3.17;;;5.20;99.90;;;;;;5011880;28;20090;-79
2021/03/31 05:05:37;;;;;;;4.15;2.88;;;5.10;99.90;;;;;;5010580;28;20086;-78
2021/03/31 05:08:03;;;;;;;5.57;2.58;;;4.80;99.90;;;;;;5026008;28;20085;-78
2021/03/31 05:10:29;;;;;;;5.65;2.80;;;4.90;99.90;;;;;;5018941;28;20483;-80
2021/03/31 05:12:54;;;;;;;4.63;2.88;;;4.80;99.90;;;;;;5022084;28;20109;-77
2021/03/31 05:15:20;;;;;;;4.70;3.00;;;5.00;99.90;;;;;;5016665;28;20479;-77
2021/03/31 05:17:46;;;;;;;6.15;2.70;;;5.00;99.90;;;;;;5019766;28;20081;-77
2021/03/31 05:20:13;;;;;;;3.97;2.70;;;4.90;99.90;;;;;;5024417;28;20082;-77
2021/03/31 05:22:39;;;;;;;6.47;2.40;;;4.70;99.90;;;;;;5027317;28;20081;-77
2021/03/31 05:25:07;;;;;;;4.45;2.28;;;4.60;99.90;;;;;;5017493;28;20109;-79
2021/03/31 05:27:33;;;;;;;5.72;3.30;;;4.60;99.90;;;;;;5014152;28;20100;-78
2021/03/31 05:29:59;;;;;;;8.45;3.30;;;4.80;99.90;;;;;;5027900;28;20556;-77
2021/03/31 05:32:25;;;;;;;4.65;2.65;;;4.80;99.90;;;;;;5019806;28;20500;-78
2021/03/31 05:34:50;;;;;;;4.57;2.80;;;5.00;99.90;;;;;;5010907;28;20089;-77
2021/03/31 05:37:16;;;;;;;3.33;2.40;;;5.20;99.90;;;;;;5009437;28;20082;-78
2021/03/31 05:39:41;;;;;;;5.25;3.40;;;5.40;99.90;;;;;;5008645;28;20120;-78
2021/03/31 05:42:10;;;;;;;3.20;2.28;;;5.10;99.90;;;;;;5012209;28;20114;-77
2021/03/31 05:44:38;;;;;;;3.38;2.72;;;5.00;99.90;;;;;;5019070;28;20173;-77
2021/03/31 05:47:09;;;;;;;5.25;2.53;;;4.80;99.90;;;;;;5017812;28;20074;-77
2021/03/31 05:49:35;;;;;;;6.85;2.67;;;4.70;99.90;;;;;;5015591;28;20106;-78
2021/03/31 05:52:01;;;;;;;2.88;2.15;;;4.90;99.90;;;;;;5028592;28;20099;-77
2021/03/31 05:54:27;;;;;;;4.63;2.53;;;5.20;99.90;;;;;;5030148;28;20070;-77
2021/03/31 05:56:53;;;;;;;5.78;2.20;;;5.40;99.90;;;;;;5022547;28;20159;-78
2021/03/31 05:59:19;;;;;;;9.80;3.05;;;5.60;99.90;;;;;;5014051;28;20471;-77
2021/03/31 06:01:47;;;;;;;16.08;3.10;;;5.50;99.90;;;;;;5014087;28;20086;-77
2021/03/31 06:04:15;;;;;;;3.78;2.22;;;5.50;99.90;;;;;;5014996;28;20556;-78
2021/03/31 06:06:41;;;;;;;5.25;2.88;;;5.70;99.90;;;;;;5017816;28;20535;-77
2021/03/31 06:09:08;;;;;;;5.22;2.40;;;5.80;99.90;;;;;;5013293;28;20152;-76
2021/03/31 06:11:51;;;;;;;4.03;2.60;;;5.90;99.90;;;;;;5010832;28;20081;-77
2021/03/31 06:14:40;;;;;;;4.05;2.90;;;6.20;99.90;;;;;;5010801;28;20090;-77
2021/03/31 06:17:13;;;;;;;4.53;2.90;;;6.20;99.90;;;;;;5014836;28;20100;-78
2021/03/31 06:19:39;;;;;;;5.53;2.85;;;6.10;99.90;;;;;;5022835;28;20093;-78
2021/03/31 06:22:39;;;;;;;6.53;2.90;;;6.10;99.90;;;;;;5018925;28;20515;-76
2021/03/31 06:25:22;;;;;;;7.60;3.22;;;6.10;99.90;;;;;;5024002;28;20101;-79
2021/03/31 06:27:54;;;;;;;5.65;3.30;;;6.30;99.90;;;;;;5012681;28;20078;-80
2021/03/31 06:30:22;;;;;;;6.68;3.17;;;6.60;99.90;;;;;;5020510;28;20070;-77
2021/03/31 06:32:49;;;;;;;9.07;3.72;;;6.90;99.90;;;;;;5023978;28;20070;-78
2021/03/31 06:35:21;;;;;;;8.00;4.30;;;7.10;99.90;;;;;;5024242;28;20112;-79
2021/03/31 06:37:46;;;;;;;4.55;3.58;;;7.30;99.90;;;;;;5012314;28;20070;-80
2021/03/31 06:40:49;;;;;;;6.95;2.58;;;7.50;99.90;;;;;;5024934;28;20066;-78
2021/03/31 06:43:24;;;;;;;3.72;2.53;;;7.70;99.90;;;;;;5020837;28;20615;-78
2021/03/31 06:48:20;;;;;;;3.92;2.08;;;8.10;99.90;;;;;;5013222;28;20098;-80
2021/03/31 06:50:46;;;;;;;8.75;2.10;;;8.50;99.90;;;;;;5021431;28;20074;-77
2021/03/31 06:53:11;;;;;;;5.28;2.13;;;8.60;99.90;;;;;;5015117;28;20078;-79
2021/03/31 06:55:38;;;;;;;6.30;1.42;;;8.80;99.90;;;;;;5022545;28;20082;-79
2021/03/31 06:58:07;;;;;;;5.45;1.95;;;8.90;99.90;;;;;;5013218;28;20441;-78
2021/03/31 07:00:34;;;;;;;11.98;3.13;;;9.10;99.90;;;;;;5018059;28;20062;-78
2021/03/31 07:03:06;;;;;;;6.35;2.22;;;9.70;99.90;;;;;;5024236;28;21804;-77
2021/03/31 07:05:33;;;;;;;6.40;2.30;;;9.90;99.90;;;;;;5015944;28;20157;-79
2021/03/31 07:08:04;;;;;;;5.80;1.92;;;10.10;99.90;;;;;;5027098;28;20102;-80
2021/03/31 07:10:42;;;;;;;6.70;1.70;;;10.40;99.90;;;;;;5027195;28;20075;-81
2021/03/31 07:13:08;;;;;;;9.18;2.08;;;10.60;99.90;;;;;;5033476;28;20077;-78
2021/03/31 07:15:34;;;;;;;4.30;1.92;;;10.80;99.90;;;;;;5028868;28;20078;-80
2021/03/31 07:18:01;;;;;;;4.13;1.73;;;10.90;99.90;;;;;;5038515;28;20093;-79
2021/03/31 07:20:29;;;;;;;5.45;1.90;;;11.20;99.90;;;;;;5039746;28;20129;-80
2021/03/31 07:22:58;;;;;;;4.50;1.60;;;11.30;99.90;;;;;;5028767;28;20074;-80
2021/03/31 07:25:23;;;;;;;4.80;1.85;;;11.40;99.90;;;;;;5037110;28;20078;-77
2021/03/31 07:27:49;;;;;;;6.90;2.13;;;11.50;99.90;;;;;;5028056;28;20451;-79
2021/03/31 07:30:19;;;;;;;2.67;1.50;;;11.60;99.90;;;;;;5033984;28;20074;-78
2021/03/31 07:32:50;;;;;;;7.20;2.35;;;11.70;99.90;;;;;;5023630;28;20078;-79
2021/03/31 07:35:17;;;;;;;8.65;2.58;;;11.90;99.90;;;;;;5037796;28;20079;-81
2021/03/31 07:37:45;;;;;;;4.20;2.38;;;12.00;99.90;;;;;;5030413;28;20085;-83
2021/03/31 07:40:17;;;;;;;5.93;2.75;;;12.10;99.90;;;;;;5032347;28;20106;-80
2021/03/31 07:42:51;;;;;;;5.18;2.33;;;12.20;99.80;;;;;;5020269;28;20083;-79
2021/03/31 07:45:18;;;;;;;4.93;2.85;;;12.30;98.90;;;;;;5030087;28;20084;-78
2021/03/31 07:47:45;;;;;;;4.45;1.95;;;12.30;98.20;;;;;;5030222;28;20078;-79
2021/03/31 07:50:12;;;;;;;3.22;2.10;;;12.50;99.20;;;;;;5020887;28;20058;-79
2021/03/31 07:52:53;;;;;;;9.27;2.65;;;12.70;99.10;;;;;;5031254;28;20073;-79
2021/03/31 07:55:40;;;;;;;4.82;2.10;;;12.70;99.60;;;;;;5026304;28;20605;-80
2021/03/31 07:58:28;;;;;;;3.67;1.75;;;12.80;99.00;;;;;;5019061;28;20101;-80
2021/03/31 08:01:02;;;;;;;5.22;1.88;;;12.90;99.20;;;;;;5031843;28;20082;-79
2021/03/31 08:03:33;;;;;;;5.63;2.10;;;13.00;97.40;;;;;;5026541;28;20455;-81
2021/03/31 08:06:05;;;;;;;13.65;2.20;;;13.10;96.10;;;;;;5029140;28;20096;-79
2021/03/31 08:08:32;;;;;;;3.92;2.38;;;13.30;96.90;;;;;;5023560;28;20148;-78
2021/03/31 08:10:59;;;;;;;5.80;2.35;;;13.30;96.90;;;;;;5020475;28;20074;-78
2021/03/31 08:13:37;;;;;;;3.35;1.70;;;13.50;96.50;;;;;;5030625;28;21481;-78
2021/03/31 08:16:24;;;;;;;3.78;1.88;;;13.50;95.30;;;;;;5014202;28;20911;-78
2021/03/31 08:18:54;;;;;;;4.93;1.98;;;13.70;96.10;;;;;;5020365;28;20536;-78
2021/03/31 08:21:25;;;;;;;2.60;1.85;;;13.70;96.50;;;;;;5015732;28;20544;-78
2021/03/31 08:23:56;;;;;;;4.32;1.92;;;13.70;95.60;;;;;;5017946;28;20160;-79
2021/03/31 08:26:31;;;;;;;3.22;1.98;;;13.80;96.20;;;;;;5026272;28;20085;-77
2021/03/31 08:29:20;;;;;;;3.50;2.20;;;13.80;95.00;;;;;;5017134;28;20112;-78
2021/03/31 08:32:00;;;;;;;3.75;1.83;;;13.70;94.40;;;;;;4984775;28;20170;-79
2021/03/31 08:34:28;;;;;;;6.18;2.53;;;13.70;95.90;;;;;;5018040;28;20108;-79
2021/03/31 08:36:55;;;;;;;4.18;1.83;;;13.40;95.20;;;;;;5019964;28;20088;-78
2021/03/31 08:39:21;;;;;;;6.38;2.10;;;13.40;95.80;;;;;;5019492;28;20216;-79
2021/03/31 08:41:52;;;;;;;5.15;1.95;;;13.30;94.90;;;;;;5023669;28;20982;-78
2021/03/31 08:44:25;;;;;;;4.57;2.05;;;13.60;93.20;;;;;;5030235;28;20097;-76
2021/03/31 08:46:52;;;;;;;4.35;1.90;;;13.70;92.50;;;;;;5013100;28;20078;-76
2021/03/31 08:49:28;;;;;;;4.57;2.22;;;13.80;95.30;;;;;;5028746;28;20135;-76
2021/03/31 08:51:59;;;;;;;7.50;1.85;;;13.80;92.90;;;;;;5030301;28;20512;-78
2021/03/31 08:54:53;;;;;;;3.72;1.90;;;13.90;92.80;;;;;;5028340;28;20098;-77
2021/03/31 08:57:22;;;;;;;6.38;2.35;;;14.10;92.70;;;;;;5030457;28;20082;-78
2021/03/31 08:59:52;;;;;;;6.03;2.38;;;14.40;94.20;;;;;;5020070;28;20123;-78
2021/03/31 09:02:23;;;;;;;3.00;1.55;;;14.50;92.40;;;;;;5021938;28;20224;-78
2021/03/31 09:04:54;;;;;;;8.50;2.58;;;14.60;91.70;;;;;;5025174;28;21451;-78
2021/03/31 09:07:19;;;;;;;4.60;1.85;;;14.60;90.10;;;;;;5025947;28;20066;-79
2021/03/31 09:09:46;;;;;;;4.38;1.80;;;14.70;86.50;;;;;;5028473;28;20169;-77
2021/03/31 09:12:14;;;;;;;13.55;2.30;;;14.40;87.50;;;;;;5030047;28;20069;-78
2021/03/31 09:14:50;;;;;;;3.25;1.40;;;14.80;90.40;;;;;;5029323;28;20123;-79
2021/03/31 09:17:24;;;;;;;3.88;1.60;;;15.10;89.50;;;;;;5026733;28;20094;-77
2021/03/31 09:19:52;;;;;;;7.22;1.40;;;14.90;86.30;;;;;;5017287;28;20593;-80
2021/03/31 09:22:20;;;;;;;5.10;2.08;;;15.10;85.10;;;;;;5024701;28;20565;-77
2021/03/31 09:24:54;;;;;;;7.75;1.77;;;15.20;85.70;;;;;;5027200;28;20121;-78
2021/03/31 09:27:22;;;;;;;4.68;1.50;;;15.30;88.90;;;;;;5022376;28;20081;-79
2021/03/31 09:29:50;;;;;;;4.15;1.70;;;15.20;87.50;;;;;;5028189;28;20093;-77
2021/03/31 09:32:31;;;;;;;3.10;1.52;;;15.20;87.80;;;;;;5029721;28;20062;-77
2021/03/31 09:35:13;;;;;;;7.47;1.83;;;15.10;85.70;;;;;;5029469;28;20085;-77
2021/03/31 09:37:44;;;;;;;4.65;2.22;;;15.30;85.00;;;;;;5024732;28;20104;-78
2021/03/31 09:40:25;;;;;;;3.65;1.98;;;15.50;87.30;;;;;;5026916;28;20097;-77
2021/03/31 09:42:58;;;;;;;4.72;1.75;;;15.30;83.90;;;;;;5029010;28;20150;-78
2021/03/31 09:45:29;;;;;;;9.20;2.17;;;15.40;86.50;;;;;;5010330;28;20075;-76
2021/03/31 09:47:56;;;;;;;4.82;1.30;;;15.50;85.70;;;;;;5013876;28;20514;-76
2021/03/31 09:50:24;;;;;;;4.75;1.60;;;15.70;88.60;;;;;;5029732;28;20070;-77
2021/03/31 09:52:59;;;;;;;4.13;2.08;;;15.80;84.60;;;;;;5019684;28;20073;-77
2021/03/31 09:55:25;;;;;;;3.78;1.92;;;15.80;87.70;;;;;;5019859;28;20074;-76
2021/03/31 09:57:52;;;;;;;4.28;1.60;;;15.90;80.00;;;;;;5026216;28;20078;-76
2021/03/31 10:00:19;;;;;;;8.95;1.90;;;16.00;85.90;;;;;;5026396;28;20078;-77
2021/03/31 10:02:46;;;;;;;5.47;2.55;;;16.00;84.60;;;;;;5029200;28;20088;-77
2021/03/31 10:05:17;;;;;;;5.60;1.88;;;16.00;79.70;;;;;;5016179;28;20082;-77
2021/03/31 10:07:54;;;;;;;6.93;1.58;;;16.10;86.70;;;;;;5020911;28;20082;-77
2021/03/31 10:10:51;;;;;;;4.88;1.77;;;16.10;85.70;;;;;;5029919;28;20057;-78
2021/03/31 10:13:18;;;;;;;3.47;2.05;;;16.10;82.10;;;;;;5030442;28;20112;-77
2021/03/31 10:15:55;;;;;;;4.30;1.65;;;15.90;80.90;;;;;;5021413;28;20086;-77
2021/03/31 10:18:21;;;;;;;4.93;1.38;;;16.10;82.20;;;;;;5027383;28;20563;-78
2021/03/31 10:20:49;;;;;;;3.55;1.73;;;16.10;79.60;;;;;;5022962;28;20158;-77
2021/03/31 10:23:27;;;;;;;6.88;1.95;;;16.20;80.30;;;;;;5014565;28;20090;-77
2021/03/31 10:26:27;;;;;;;4.65;1.98;;;16.50;82.30;;;;;;5026442;28;20093;-77
2021/03/31 10:29:01;;;;;;;8.35;2.08;;;16.60;85.70;;;;;;5011255;28;20094;-77
2021/03/31 10:31:38;;;;;;;3.25;1.73;;;16.20;84.90;;;;;;5013938;28;20217;-77
2021/03/31 10:34:05;;;;;;;4.13;1.98;;;16.40;82.80;;;;;;5019263;28;20127;-78
2021/03/31 10:40:04;;;;;;;7.78;2.20;;;16.60;81.80;;;;;;5001466;28;20106;-76
2021/03/31 10:48:31;;;;;;;7.10;2.45;;;16.70;76.60;;;;;;5026697;28;20104;-77
2021/03/31 10:51:03;;;;;;;8.13;2.45;;;16.80;76.90;;;;;;5018671;28;20471;-78
2021/03/31 10:53:43;;;;;;;6.57;2.15;;;16.90;75.60;;;;;;5014900;28;20158;-77
2021/03/31 10:56:09;;;;;;;6.82;2.40;;;17.00;78.80;;;;;;5024840;28;20078;-77
2021/03/31 10:58:35;;;;;;;4.63;2.80;;;17.10;74.40;;;;;;5014233;28;20225;-76
2021/03/31 11:01:00;;;;;;;6.10;2.80;;;17.40;81.80;;;;;;5019357;28;20532;-76
2021/03/31 11:03:26;;;;;;;7.72;2.90;;;17.10;73.90;;;;;;5024819;28;20152;-78
2021/03/31 11:05:53;;;;;;;6.65;2.70;;;17.10;76.50;;;;;;5023876;28;20077;-77
2021/03/31 11:08:20;;;;;;;5.82;2.80;;;17.20;75.00;;;;;;5027621;28;20112;-78
2021/03/31 11:10:46;;;;;;;4.70;2.45;;;17.60;78.70;;;;;;5019560;28;20079;-78
2021/03/31 11:13:11;;;;;;;8.18;2.17;;;17.60;72.90;;;;;;5015672;28;20433;-78
2021/03/31 11:15:38;;;;;;;5.35;2.53;;;17.90;74.20;;;;;;5025090;28;20145;-79
2021/03/31 11:26:17;;;;;;;5.78;3.75;;;18.00;72.00;;;;;;5038600;28;20319;-78
2021/03/31 11:28:43;;;;;;;5.30;2.80;;;18.20;70.80;;;;;;5027338;28;20098;-77
2021/03/31 11:31:10;;;;;;;6.70;2.63;;;18.20;67.50;;;;;;5013762;28;20070;-77
2021/03/31 11:33:37;;;;;;;8.73;2.97;;;17.90;75.20;;;;;;5020677;28;20082;-78
2021/03/31 11:36:03;;;;;;;6.88;3.00;;;18.00;70.00;;;;;;5017120;28;20066;-80
2021/03/31 11:38:30;;;;;;;7.20;2.78;;;18.00;73.80;;;;;;5020241;28;20634;-79
2021/03/31 11:40:56;;;;;;;7.40;3.20;;;18.30;76.20;;;;;;5022679;28;20078;-78
2021/03/31 11:43:21;;;;;;;6.68;3.30;;;18.30;75.60;;;;;;5026734;28;20090;-77
2021/03/31 11:45:47;;;;;;;6.72;3.05;;;18.20;75.00;;;;;;5011625;28;20691;-78
2021/03/31 11:48:14;;;;;;;5.43;3.00;;;18.00;74.20;;;;;;5027871;28;20089;-78
2021/03/31 11:50:40;;;;;;;8.75;3.05;;;18.10;71.70;;;;;;5027746;28;20533;-79
2021/03/31 11:53:05;;;;;;;4.72;3.15;;;18.10;73.90;;;;;;5024737;28;20085;-78
2021/03/31 11:55:31;;;;;;;6.65;2.80;;;18.50;74.10;;;;;;5028669;28;20078;-78
2021/03/31 11:57:57;;;;;;;6.65;3.20;;;18.40;70.80;;;;;;5029492;28;20074;-78
2021/03/31 12:00:23;;;;;;;9.18;4.13;;;18.60;69.70;;;;;;5029003;28;20070;-77
2021/03/31 12:02:48;;;;;;;5.78;3.25;;;19.10;69.30;;;;;;5025585;28;20643;-77
2021/03/31 12:05:14;;;;;;;10.57;4.03;;;19.00;74.10;;;;;;5024221;28;20097;-76
2021/03/31 12:07:40;;;;;;;10.05;3.65;;;18.80;66.50;;;;;;5017218;28;20077;-79
2021/03/31 12:10:08;;;;;;;7.65;3.28;;;18.80;63.50;;;;;;5026712;28;20089;-78
2021/03/31 12:12:35;;;;;;;6.65;2.75;;;18.70;65.70;;;;;;5019250;28;20205;-78
2021/03/31 12:15:01;;;;;;;7.30;3.83;;;18.90;65.60;;;;;;5013690;28;20121;-78
2021/03/31 12:17:26;;;;;;;11.43;4.15;;;18.90;66.60;;;;;;5024158;28;20074;-79
2021/03/31 12:19:52;;;;;;;8.00;3.92;;;18.90;66.90;;;;;;5028074;28;20105;-76
2021/03/31 12:22:18;;;;;;;10.93;4.47;;;18.90;67.60;;;;;;5024988;28;20088;-79
2021/03/31 12:24:43;;;;;;;10.82;4.10;;;18.80;67.10;;;;;;5029387;28;20491;-79
2021/03/31 12:27:09;;;;;;;9.57;3.78;;;18.80;67.80;;;;;;5020263;28;20201;-80
2021/03/31 12:29:36;;;;;;;8.20;3.40;;;18.90;69.10;;;;;;5023976;28;20617;-79
2021/03/31 12:32:02;;;;;;;6.28;3.45;;;18.90;66.40;;;;;;5021376;28;20082;-78
2021/03/31 12:34:29;;;;;;;9.05;3.97;;;19.30;67.30;;;;;;5027070;28;20074;-77
2021/03/31 12:36:55;;;;;;;8.75;3.47;;;19.20;69.90;;;;;;5027070;28;20077;-77
2021/03/31 12:39:21;;;;;;;7.13;3.78;;;19.20;70.90;;;;;;5026233;28;20094;-78
2021/03/31 12:41:46;;;;;;;7.53;4.45;;;18.90;71.80;;;;;;5032829;28;20136;-78
2021/03/31 12:44:12;;;;;;;6.32;4.28;;;19.40;66.80;;;;;;5028805;28;20090;-78
2021/03/31 12:46:38;;;;;;;8.07;4.57;;;19.30;66.40;;;;;;5019237;28;20082;-79
2021/03/31 12:49:03;;;;;;;6.82;4.05;;;19.30;65.80;;;;;;5022603;28;21857;-79
2021/03/31 12:51:33;;;;;;;11.93;5.30;;;19.20;65.60;;;;;;5021232;28;20149;-77
2021/03/31 12:54:10;;;;;;;10.93;4.93;;;19.30;65.40;;;;;;5021365;28;20160;-79
2021/03/31 12:56:36;;;;;;;10.52;4.78;;;19.10;63.70;;;;;;5018159;28;20081;-79
2021/03/31 12:59:02;;;;;;;9.98;5.10;;;19.10;66.50;;;;;;5023789;28;20083;-79
2021/03/31 13:01:28;;;;;;;12.63;5.22;;;19.60;63.20;;;;;;5020623;28;20555;-78
2021/03/31 13:03:54;;;;;;;11.88;5.00;;;19.70;63.70;;;;;;5022670;28;20094;-78
2021/03/31 13:06:24;;;;;;;11.32;5.05;;;19.70;63.40;;;;;;5014469;28;20599;-80
2021/03/31 13:08:52;;;;;;;7.45;5.18;;;19.50;66.30;;;;;;5025102;28;20090;-79
2021/03/31 13:11:19;;;;;;;9.90;4.97;;;19.30;63.50;;;;;;5015987;28;20148;-76
2021/03/31 13:16:16;;;;;;;11.48;6.05;;;19.40;64.70;;;;;;5023949;28;20074;-77
2021/03/31 13:24:28;;;;;;;9.45;5.85;;;19.30;64.70;;;;;;5023576;28;20148;-77
2021/03/31 13:34:56;;;;;;;12.68;5.05;;;19.80;60.40;;;;;;5029403;28;20077;-77
2021/03/31 13:37:32;;;;;;;12.23;5.68;;;19.50;61.40;;;;;;5027955;28;20105;-75
2021/03/31 13:39:59;;;;;;;7.80;5.97;;;19.40;61.50;;;;;;5025257;28;20140;-75
2021/03/31 13:42:25;;;;;;;8.30;5.10;;;19.60;60.30;;;;;;5013586;28;20681;-75